Time;durP1;ratioP1;P1;durP2;ratioP2;P2;SDS_P1;SDS_P2;PMS_P1;PMS_P2;Temp;Humidity;BMP_temperature;BMP_pressure;BME280_temperature;BME280_humidity;BME280_pressure;Samples;Min_cycle;Max_cycle;Signal;HPM_P1;HPM_P2
2022/05/31 00:00:41;;;;;;;4.67;2.67;;;15.00;62.50;;;17.69;47.84;101487.56;5015272;28;20207;-65
2022/05/31 00:03:12;;;;;;;2.73;2.10;;;14.90;61.60;;;17.67;47.87;101489.63;5050715;28;20646;-63
2022/05/31 00:05:38;;;;;;;2.87;2.07;;;14.90;61.50;;;17.61;47.58;101482.44;5053825;28;20235;-63
2022/05/31 00:11:02;;;;;;;3.30;2.50;;;14.90;62.20;;;17.49;48.05;101477.69;5175032;27;20685;-64
2022/05/31 00:13:29;;;;;;;2.97;2.07;;;14.70;62.00;;;17.45;48.42;101484.44;5134323;27;20639;-64
2022/05/31 00:15:56;;;;;;;3.00;2.27;;;14.70;62.10;;;17.43;48.66;101482.97;5131275;28;20223;-66
2022/05/31 00:18:23;;;;;;;5.17;2.43;;;14.70;62.40;;;17.38;48.65;101477.44;5129176;28;20191;-66
2022/05/31 00:20:50;;;;;;;2.67;2.10;;;14.60;62.70;;;17.36;48.56;101471.50;5088873;28;20652;-63
2022/05/31 00:23:40;;;;;;;3.73;2.30;;;14.60;62.80;;;17.31;48.61;101477.44;4998351;28;20303;-66
2022/05/31 00:26:08;;;;;;;2.50;2.00;;;14.60;63.10;;;17.29;49.22;101479.47;5021700;28;20228;-66
2022/05/31 00:28:35;;;;;;;4.93;2.40;;;14.50;63.30;;;17.29;48.82;101474.16;4993119;28;20197;-67
2022/05/31 00:31:16;;;;;;;4.67;2.30;;;14.50;63.20;;;17.26;48.84;101479.88;4850071;29;20212;-65
2022/05/31 00:36:16;;;;;;;2.47;2.27;;;14.50;63.20;;;17.19;49.58;101483.50;5156754;27;20727;-66
2022/05/31 00:38:43;;;;;;;2.57;1.97;;;14.40;64.00;;;17.18;49.59;101480.06;5132575;28;20535;-65
2022/05/31 00:41:23;;;;;;;4.20;2.60;;;14.40;63.90;;;17.16;49.60;101479.44;5129894;28;20617;-65
2022/05/31 00:43:50;;;;;;;3.10;1.80;;;14.40;64.00;;;17.12;49.37;101478.19;5065211;28;20613;-66
2022/05/31 00:46:21;;;;;;;4.50;2.40;;;14.30;64.00;;;17.06;49.39;101478.97;5075928;28;20217;-65
2022/05/31 00:48:57;;;;;;;3.23;2.20;;;14.20;64.30;;;17.01;49.72;101478.75;5051624;28;20225;-67
2022/05/31 00:51:39;;;;;;;2.67;2.17;;;14.20;64.60;;;16.95;49.98;101481.41;5064202;28;20205;-66
2022/05/31 00:54:16;;;;;;;2.33;2.00;;;14.20;64.80;;;16.90;50.24;101485.44;4988035;28;20196;-65
2022/05/31 00:56:56;;;;;;;4.33;2.20;;;14.10;65.30;;;16.87;50.58;101475.22;4882519;29;20235;-66
2022/05/31 01:02:01;;;;;;;3.03;2.13;;;14.10;65.40;;;16.89;50.59;101475.00;5173816;27;20630;-65
2022/05/31 01:04:38;;;;;;;3.80;2.30;;;14.10;65.80;;;16.89;50.81;101483.81;5130256;27;20553;-64
2022/05/31 01:07:06;;;;;;;13.50;3.97;;;14.10;65.80;;;16.92;50.02;101474.63;5107758;28;20245;-67
2022/05/31 01:09:33;;;;;;;10.57;3.47;;;14.10;65.70;;;16.92;50.87;101482.59;5128812;28;20489;-66
2022/05/31 01:12:03;;;;;;;12.37;3.87;;;14.10;65.90;;;16.93;50.66;101484.22;5055897;28;20213;-67
2022/05/31 01:14:31;;;;;;;17.80;4.17;;;14.10;65.80;;;16.94;50.53;101472.59;4998313;28;20268;-66
2022/05/31 01:17:04;;;;;;;9.80;3.40;;;14.10;65.90;;;16.94;50.49;101467.28;5007988;28;20519;-65
2022/05/31 01:22:45;;;;;;;9.20;2.93;;;14.10;65.80;;;16.96;50.33;101475.88;5172133;27;20630;-66
2022/05/31 01:25:32;;;;;;;8.97;3.80;;;14.10;65.80;;;16.96;50.74;101467.88;5122331;28;20222;-65
2022/05/31 01:28:14;;;;;;;7.77;2.90;;;14.10;65.90;;;16.99;50.55;101466.69;5061658;28;20578;-65
2022/05/31 01:30:45;;;;;;;8.73;3.23;;;14.10;66.00;;;17.05;50.75;101464.03;5085875;28;20238;-65
2022/05/31 01:33:22;;;;;;;7.07;2.93;;;14.20;65.90;;;17.07;50.57;101464.66;4994688;28;20197;-66
2022/05/31 01:35:49;;;;;;;5.60;3.00;;;14.20;65.70;;;17.10;50.43;101466.09;4908136;29;20235;-66
2022/05/31 01:38:46;;;;;;;12.77;3.33;;;14.20;65.60;;;17.10;50.05;101474.91;4821408;29;20296;-65
2022/05/31 01:43:58;;;;;;;6.83;3.30;;;14.20;65.50;;;17.09;50.27;101467.94;5172136;27;20544;-66
2022/05/31 01:46:32;;;;;;;4.57;3.33;;;14.20;65.70;;;17.11;50.60;101470.41;5096978;28;20678;-67
2022/05/31 01:49:01;;;;;;;6.70;3.17;;;14.30;65.70;;;17.12;50.57;101467.53;5112266;28;20187;-66
2022/05/31 01:51:28;;;;;;;8.37;3.03;;;14.30;65.80;;;17.15;50.33;101463.66;5146128;27;20281;-66
2022/05/31 01:53:58;;;;;;;4.97;2.83;;;14.30;65.50;;;17.15;50.06;101458.34;5093386;28;20565;-65
2022/05/31 01:56:25;;;;;;;4.53;2.90;;;14.30;65.50;;;17.17;50.18;101457.13;5069164;28;20340;-65
2022/05/31 01:58:55;;;;;;;3.67;2.50;;;14.30;65.60;;;17.17;50.08;101462.44;5072010;28;20288;-65
2022/05/31 02:01:30;;;;;;;4.20;2.80;;;14.40;65.40;;;17.17;50.29;101465.09;4993769;28;20201;-66
2022/05/31 02:04:11;;;;;;;4.17;2.80;;;14.40;65.50;;;17.19;50.13;101457.72;4854736;29;20324;-66
2022/05/31 02:09:16;;;;;;;7.37;6.70;;;14.40;65.40;;;17.18;49.94;101449.97;5156301;27;20542;-65
2022/05/31 02:11:42;;;;;;;3.30;2.87;;;14.30;65.40;;;17.17;50.15;101449.13;5151797;27;20194;-66
2022/05/31 02:14:09;;;;;;;3.70;2.40;;;14.30;65.50;;;17.16;50.28;101458.16;5150759;27;20278;-67
2022/05/31 02:16:36;;;;;;;3.93;2.63;;;14.30;65.80;;;17.17;50.23;101449.13;5149857;27;20658;-67
2022/05/31 02:19:23;;;;;;;3.07;2.70;;;14.30;65.90;;;17.22;50.36;101452.03;5140909;27;20195;-66
2022/05/31 02:21:53;;;;;;;2.93;2.70;;;14.40;65.90;;;17.24;50.48;101444.66;5126433;27;20198;-66
2022/05/31 02:24:23;;;;;;;5.07;3.50;;;14.40;65.80;;;17.30;50.20;101446.53;5146066;27;20194;-66
2022/05/31 02:26:51;;;;;;;3.90;3.13;;;14.50;65.70;;;17.37;50.02;101450.03;5111837;27;20196;-66
2022/05/31 02:29:17;;;;;;;4.33;3.23;;;14.50;65.40;;;17.39;49.76;101442.66;5102191;28;20252;-65
2022/05/31 02:34:26;;;;;;;6.33;3.40;;;14.50;65.20;;;17.48;49.67;101445.94;5171049;27;20649;-63
2022/05/31 02:36:53;;;;;;;4.80;2.60;;;14.60;65.00;;;17.50;49.37;101455.38;5109969;28;20644;-64
2022/05/31 02:39:20;;;;;;;2.43;2.13;;;14.60;64.80;;;17.51;49.64;101446.41;5124206;28;20190;-65
2022/05/31 02:41:47;;;;;;;2.67;2.30;;;14.60;64.90;;;17.52;49.33;101456.00;5097551;28;20193;-63
2022/05/31 02:44:14;;;;;;;4.10;3.10;;;14.60;64.80;;;17.50;49.55;101454.53;5064004;28;20232;-66
2022/05/31 02:46:42;;;;;;;2.70;2.50;;;14.60;65.50;;;17.45;49.30;101452.47;5027291;28;20218;-66
2022/05/31 02:49:09;;;;;;;4.27;2.77;;;14.60;64.70;;;17.43;49.45;101454.53;5024886;28;20206;-66
2022/05/31 02:53:07;;;;;;;5.03;2.97;;;14.60;64.90;;;17.29;49.66;101452.88;4980132;28;20206;-66
2022/05/31 02:58:11;;;;;;;3.80;2.30;;;14.60;64.90;;;17.36;49.85;101456.34;5172023;27;20956;-63
2022/05/31 03:00:38;;;;;;;4.07;2.70;;;14.50;65.00;;;17.36;50.19;101456.34;5131070;27;20199;-63
2022/05/31 03:03:05;;;;;;;3.47;2.30;;;14.50;65.00;;;17.35;49.77;101452.03;5147803;27;20210;-66
2022/05/31 03:05:33;;;;;;;3.57;3.00;;;14.50;65.00;;;17.35;49.75;101452.03;5138890;27;20218;-67
2022/05/31 03:08:00;;;;;;;5.17;4.67;;;14.50;65.00;;;17.36;49.70;101448.38;5104754;28;20268;-66
2022/05/31 03:10:33;;;;;;;3.77;3.00;;;14.50;64.80;;;17.37;49.75;101449.19;5107173;28;20510;-66
2022/05/31 03:13:02;;;;;;;5.33;3.53;;;14.50;65.00;;;17.38;49.66;101445.50;5104771;28;20188;-65
2022/05/31 03:18:04;;;;;;;3.23;3.03;;;14.50;65.00;;;17.26;49.62;101442.59;5081990;28;20300;-64
2022/05/31 03:23:17;;;;;;;4.60;3.43;;;14.50;64.80;;;17.28;49.71;101439.78;5171905;27;20931;-63
2022/05/31 03:25:47;;;;;;;2.83;2.63;;;14.50;64.90;;;17.33;49.95;101447.97;5117081;28;20223;-65
2022/05/31 03:28:16;;;;;;;7.37;3.57;;;14.50;65.00;;;17.36;49.75;101443.06;5113692;28;20191;-65
2022/05/31 03:30:42;;;;;;;4.03;3.73;;;14.50;64.80;;;17.38;49.51;101440.19;5148762;27;20273;-63
2022/05/31 03:33:10;;;;;;;4.67;3.70;;;14.50;64.60;;;17.36;49.24;101443.06;5072598;28;20199;-64
2022/05/31 03:35:38;;;;;;;4.17;3.30;;;14.50;64.30;;;17.39;49.36;101445.31;5039487;28;20282;-65
2022/05/31 03:38:05;;;;;;;4.07;3.50;;;14.50;64.60;;;17.40;49.18;101444.28;5084801;28;20200;-64
2022/05/31 03:43:10;;;;;;;4.33;3.83;;;14.50;64.30;;;17.45;48.83;101446.34;5171871;27;20629;-66
2022/05/31 03:45:40;;;;;;;5.13;3.80;;;14.60;64.00;;;17.44;49.08;101442.88;5139208;27;20262;-65
2022/05/31 03:48:09;;;;;;;4.63;4.17;;;14.60;64.00;;;17.44;48.88;101444.72;5124561;28;20663;-65
2022/05/31 03:50:38;;;;;;;4.37;3.97;;;14.50;63.90;;;17.44;48.68;101444.72;5119464;27;20190;-65
2022/05/31 03:53:06;;;;;;;5.27;3.30;;;14.50;63.70;;;17.45;48.99;101446.34;5105560;28;20229;-65
2022/05/31 03:55:36;;;;;;;4.87;4.00;;;14.50;64.00;;;17.47;48.98;101444.31;5101119;28;20303;-66
2022/05/31 03:58:24;;;;;;;4.27;3.57;;;14.60;64.00;;;17.47;48.96;101439.78;4980657;28;20216;-66
2022/05/31 04:03:31;;;;;;;5.00;4.33;;;14.60;64.00;;;17.50;48.88;101444.72;5172096;27;20633;-66
2022/05/31 04:06:04;;;;;;;4.07;3.77;;;14.60;63.80;;;17.53;48.80;101449.69;5110455;28;20267;-67
2022/05/31 04:08:33;;;;;;;6.40;3.90;;;14.60;63.60;;;17.55;48.53;101444.13;5103646;28;20336;-65
2022/05/31 04:10:59;;;;;;;6.07;4.13;;;14.60;63.50;;;17.54;48.57;101445.97;5008156;28;20206;-65
2022/05/31 04:13:28;;;;;;;5.27;4.77;;;14.60;63.30;;;17.56;48.30;101449.28;4994340;28;20249;-67
2022/05/31 04:16:08;;;;;;;4.43;4.03;;;14.60;63.30;;;17.54;48.62;101448.63;5014756;28;20213;-66
2022/05/31 04:18:37;;;;;;;5.37;4.67;;;14.70;63.40;;;17.58;48.37;101447.22;4966295;28;20199;-67
2022/05/31 04:21:09;;;;;;;4.20;3.90;;;14.70;63.40;;;17.61;48.42;101442.50;4960595;28;20287;-68
2022/05/31 04:23:59;;;;;;;4.30;3.90;;;14.70;63.40;;;17.65;48.50;101446.41;5171780;27;20960;-65
2022/05/31 04:26:29;;;;;;;4.27;3.90;;;14.70;63.20;;;17.64;48.41;101447.44;5120856;28;20223;-66
2022/05/31 04:28:56;;;;;;;5.17;4.53;;;14.70;63.40;;;17.67;48.44;101447.84;5149979;27;20287;-66
2022/05/31 04:31:23;;;;;;;4.57;4.17;;;14.70;63.30;;;17.72;48.12;101452.56;5149800;27;20247;-66
2022/05/31 04:33:49;;;;;;;5.13;4.63;;;14.70;63.10;;;17.74;48.06;101450.50;5126402;27;20637;-65
2022/05/31 04:36:20;;;;;;;5.07;4.20;;;14.80;63.10;;;17.75;47.91;101444.16;5074889;28;20211;-65
2022/05/31 04:38:48;;;;;;;4.73;4.33;;;14.80;63.20;;;17.81;47.91;101446.81;5007668;28;20209;-66
2022/05/31 04:42:54;;;;;;;5.13;4.20;;;14.80;63.20;;;17.75;48.26;101449.50;4800079;29;20241;-65
2022/05/31 04:48:06;;;;;;;6.77;5.13;;;14.90;62.90;;;17.91;47.97;101452.56;5172501;27;20626;-66
2022/05/31 04:50:35;;;;;;;5.53;5.03;;;15.00;62.70;;;17.94;47.69;101446.84;5151174;27;20246;-65
2022/05/31 04:53:01;;;;;;;5.63;3.93;;;15.00;62.50;;;17.99;47.62;101449.72;5151017;27;20376;-62
2022/05/31 04:55:29;;;;;;;4.57;4.17;;;15.00;62.60;;;18.02;47.48;101453.78;5157532;27;20218;-65
2022/05/31 04:57:55;;;;;;;5.03;4.63;;;15.00;62.50;;;18.05;47.40;101459.53;5098707;28;20196;-67
2022/05/31 05:00:22;;;;;;;7.03;4.20;;;15.00;62.40;;;18.09;47.61;101449.31;5064827;28;20193;-64
2022/05/31 05:02:49;;;;;;;5.43;4.60;;;15.10;62.50;;;18.12;47.40;101451.53;5100321;28;20203;-65
2022/05/31 05:05:16;;;;;;;5.13;4.60;;;15.10;62.30;;;18.16;47.34;101455.44;5101036;28;20590;-65
2022/05/31 05:07:43;;;;;;;5.07;4.63;;;15.20;62.30;;;18.20;47.32;101448.66;5059844;28;20226;-64
2022/05/31 05:12:47;;;;;;;33.57;26.13;;;15.20;62.30;;;18.32;47.10;101448.84;5172414;27;20654;-66
2022/05/31 05:15:14;;;;;;;7.30;6.40;;;15.20;62.00;;;18.36;46.62;101445.56;5142678;27;20651;-65
2022/05/31 05:17:40;;;;;;;7.60;5.40;;;15.20;61.90;;;18.40;46.75;101441.44;5129163;28;20203;-66
2022/05/31 05:20:09;;;;;;;6.23;4.77;;;15.20;61.60;;;18.43;46.56;101443.69;5122578;28;20205;-66
2022/05/31 05:22:36;;;;;;;5.83;4.47;;;15.30;61.50;;;18.46;46.59;101439.84;5108461;28;20209;-67
2022/05/31 05:25:04;;;;;;;5.47;4.77;;;15.30;61.50;;;18.49;46.39;101440.25;5034761;28;20555;-65
2022/05/31 05:27:30;;;;;;;5.53;4.30;;;15.40;61.30;;;18.55;46.33;101444.72;4978686;28;20241;-65
2022/05/31 05:32:43;;;;;;;5.50;4.70;;;15.40;61.40;;;18.71;45.75;101444.28;5171622;27;20596;-66
2022/05/31 05:35:10;;;;;;;13.47;5.10;;;15.50;60.80;;;18.69;45.37;101451.66;5133894;27;20234;-66
2022/05/31 05:37:37;;;;;;;7.53;5.43;;;15.60;59.70;;;18.66;45.21;101457.41;5129862;28;20214;-66
2022/05/31 05:40:05;;;;;;;6.43;5.40;;;15.60;59.60;;;18.62;45.40;101456.19;5147906;27;20195;-65
2022/05/31 05:42:31;;;;;;;6.90;5.60;;;15.60;59.70;;;18.61;45.53;101459.88;5106633;28;20201;-67
2022/05/31 05:45:00;;;;;;;6.10;4.33;;;15.70;59.60;;;18.56;44.59;101457.06;5077257;28;20211;-65
2022/05/31 05:47:27;;;;;;;8.93;4.47;;;15.60;58.70;;;18.43;44.73;101456.22;5021924;28;20219;-64
2022/05/31 05:49:53;;;;;;;10.27;6.33;;;15.60;58.30;;;18.33;45.03;101451.31;4942984;28;20200;-65
2022/05/31 05:54:58;;;;;;;6.10;4.20;;;15.60;58.50;;;18.21;44.96;101447.63;5170592;27;20643;-65
2022/05/31 05:57:25;;;;;;;5.37;4.00;;;15.50;58.40;;;18.20;45.34;101454.00;5132381;28;20624;-65
2022/05/31 05:59:51;;;;;;;9.63;4.30;;;15.40;58.70;;;18.23;45.61;101453.59;5130337;28;20291;-68
2022/05/31 06:02:27;;;;;;;5.53;3.80;;;15.40;59.20;;;18.33;45.57;101453.97;5097849;28;20210;-67
2022/05/31 06:05:32;;;;;;;5.10;4.63;;;15.40;59.30;;;18.50;45.09;101454.38;5013083;28;20249;-66
2022/05/31 06:08:05;;;;;;;6.87;4.00;;;15.50;59.20;;;18.58;44.99;101449.66;5038340;28;20642;-66
2022/05/31 06:10:38;;;;;;;4.50;4.03;;;15.50;59.80;;;18.62;44.51;101450.03;4850316;29;20252;-65
2022/05/31 06:13:05;;;;;;;5.00;3.33;;;15.60;58.70;;;18.69;44.60;101457.00;4736112;29;20227;-69
2022/05/31 06:18:15;;;;;;;3.57;2.67;;;15.60;58.60;;;18.85;43.94;101445.84;5172539;27;20634;-70
2022/05/31 06:20:49;;;;;;;4.13;3.10;;;15.80;58.00;;;18.93;43.74;101456.31;5148124;27;20210;-68
2022/05/31 06:23:16;;;;;;;3.67;3.27;;;15.80;57.90;;;18.99;43.51;101451.16;5127106;27;20271;-67
2022/05/31 06:25:42;;;;;;;5.60;3.30;;;15.80;57.60;;;18.99;43.42;101456.50;5098409;28;20214;-68
2022/05/31 06:28:09;;;;;;;4.30;3.50;;;15.90;57.30;;;18.96;43.54;101456.91;5058099;28;20286;-65
2022/05/31 06:30:38;;;;;;;10.43;6.90;;;15.90;57.30;;;19.00;43.47;101458.94;5019430;28;20223;-66
2022/05/31 06:33:06;;;;;;;4.67;3.00;;;16.00;57.50;;;19.03;42.97;101457.69;4936321;28;20253;-66
2022/05/31 06:35:36;;;;;;;3.27;2.43;;;16.00;56.90;;;19.05;43.42;101453.78;4841948;29;20249;-68
2022/05/31 06:38:02;;;;;;;4.13;3.40;;;16.10;57.20;;;19.06;43.32;101446.59;4700485;30;20241;-66
2022/05/31 06:42:35;;;;;;;4.13;3.20;;;16.10;57.00;;;19.11;43.30;101452.13;5110555;27;20970;-66
2022/05/31 06:45:03;;;;;;;3.13;2.70;;;16.20;56.80;;;19.19;43.08;101455.34;5091296;28;20211;-66
2022/05/31 06:47:30;;;;;;;4.27;2.60;;;16.20;56.70;;;19.27;42.97;101454.28;5140671;27;20193;-66
2022/05/31 06:49:56;;;;;;;4.47;2.87;;;16.30;56.60;;;19.35;42.75;101454.06;5094397;28;20235;-68
2022/05/31 06:59:15;;;;;;;5.13;3.93;;;16.40;56.60;;;19.53;42.52;101454.16;4687410;30;20702;-66
2022/05/31 07:01:45;;;;;;;4.53;3.43;;;16.50;56.10;;;19.59;41.61;101458.63;4506209;31;20251;-66
2022/05/31 07:07:23;;;;;;;5.90;5.00;;;16.50;55.10;;;19.78;41.53;101452.34;5143075;27;20639;-66
2022/05/31 07:10:16;;;;;;;;;;;;;;;;;;;;;
2022/05/31 07:13:27;;;;;;;3.97;3.53;;;16.80;55.00;;;19.94;41.48;101454.50;5053654;28;20220;-67
2022/05/31 07:16:01;;;;;;;6.13;4.47;;;16.80;55.30;;;20.09;41.23;101449.63;5072148;28;20237;-67
2022/05/31 07:18:49;;;;;;;22.97;17.77;;;16.90;55.40;;;20.31;41.13;101457.25;4953056;28;20241;-68
2022/05/31 07:21:25;;;;;;;8.67;6.13;;;17.00;55.30;;;20.54;41.00;101446.75;4844640;29;20323;-66
2022/05/31 07:26:30;;;;;;;3.37;3.10;;;17.10;55.20;;;20.99;40.37;101440.00;5143222;27;20564;-64
2022/05/31 07:29:09;;;;;;;6.03;3.40;;;17.40;54.90;;;21.18;40.04;101447.00;5086394;28;20194;-65
2022/05/31 07:31:36;;;;;;;4.53;2.90;;;17.60;54.40;;;21.38;39.51;101439.53;5106775;28;20202;-65
2022/05/31 07:34:17;;;;;;;3.83;3.00;;;17.70;53.80;;;21.62;38.75;101447.63;5027723;28;20199;-65
2022/05/31 07:36:51;;;;;;;6.53;3.33;;;17.90;53.90;;;21.83;38.61;101447.91;4951595;28;20230;-68
2022/05/31 07:39:27;;;;;;;4.60;2.70;;;18.10;53.40;;;21.97;38.26;101440.47;4924618;28;20214;-69
2022/05/31 07:42:01;;;;;;;5.47;2.83;;;18.20;53.10;;;22.14;37.43;101444.09;4778648;29;20298;-66
2022/05/31 07:44:28;;;;;;;4.43;2.60;;;18.40;51.90;;;22.21;37.03;101442.13;4694577;30;20634;-66
2022/05/31 07:47:12;;;;;;;2.90;2.60;;;18.60;51.20;;;22.27;36.55;101431.25;5144090;27;20850;-63
2022/05/31 07:49:39;;;;;;;3.40;2.83;;;18.70;50.50;;;22.31;35.58;101428.94;5126282;28;20211;-67
2022/05/31 07:52:08;;;;;;;4.33;2.73;;;18.80;48.90;;;22.35;35.95;101440.81;5091016;28;20219;-65
2022/05/31 07:54:35;;;;;;;3.70;2.37;;;18.90;49.20;;;22.54;36.49;101434.28;5046131;28;20227;-66
2022/05/31 07:57:05;;;;;;;2.93;2.67;;;19.00;49.80;;;22.78;35.49;101435.88;5033126;28;20207;-66
2022/05/31 07:59:32;;;;;;;3.47;2.70;;;19.10;49.10;;;23.02;35.41;101425.06;4999350;28;20640;-67
2022/05/31 08:01:59;;;;;;;3.83;3.10;;;19.20;48.90;;;23.29;35.36;101412.69;4970025;28;20200;-62
2022/05/31 08:07:05;;;;;;;4.33;3.70;;;19.30;49.60;;;23.54;34.91;101418.53;5153221;27;20627;-64
2022/05/31 08:09:32;;;;;;;3.63;2.80;;;19.70;48.80;;;23.80;34.96;101412.50;5089735;28;20205;-63
2022/05/31 08:11:59;;;;;;;6.53;4.63;;;19.90;49.10;;;24.23;34.58;101418.03;5092026;28;20195;-63
2022/05/31 08:14:25;;;;;;;3.33;3.00;;;20.10;49.20;;;24.82;33.96;101415.56;5104449;28;20315;-66
2022/05/31 08:16:52;;;;;;;3.33;3.03;;;20.30;48.90;;;25.46;32.87;101405.75;5048435;28;20202;-64
2022/05/31 08:19:19;;;;;;;3.97;3.40;;;20.70;48.60;;;25.77;32.45;101406.84;4941150;28;20222;-65
2022/05/31 08:21:46;;;;;;;4.43;2.60;;;21.00;48.80;;;25.94;32.51;101402.06;4860121;29;20231;-65
2022/05/31 08:27:28;;;;;;;4.87;3.53;;;21.60;46.60;;;27.71;30.12;101396.22;5140130;27;20544;-64
2022/05/31 08:29:58;;;;;;;7.43;6.10;;;22.10;46.40;;;28.79;29.47;101385.63;5116590;28;20583;-64
2022/05/31 08:32:25;;;;;;;3.47;3.17;;;22.70;46.20;;;29.36;27.97;101385.00;5097894;28;20198;-66
2022/05/31 08:34:54;;;;;;;3.10;2.90;;;23.30;44.70;;;30.31;27.22;101375.13;5059752;28;20216;-65
2022/05/31 08:37:22;;;;;;;3.10;2.47;;;23.80;43.20;;;31.30;26.08;101375.97;4975839;28;20283;-66
2022/05/31 08:39:49;;;;;;;8.83;7.93;;;24.40;42.70;;;31.51;25.31;101376.47;4928161;28;20229;-64
2022/05/31 08:42:23;;;;;;;6.17;5.57;;;25.00;40.70;;;31.14;24.77;101380.06;4897560;29;20497;-70
2022/05/31 08:44:49;;;;;;;23.67;21.27;;;25.30;38.20;;;30.98;25.03;101378.63;4743952;29;20237;-65
2022/05/31 08:53:21;;;;;;;3.57;3.27;;;25.60;37.20;;;30.63;24.79;101367.16;5071583;27;20237;-65
2022/05/31 08:58:55;;;;;;;3.13;2.30;;;25.50;36.20;;;29.40;26.17;101369.81;5007275;28;20194;-65
2022/05/31 09:01:28;;;;;;;2.13;2.00;;;25.20;36.00;;;28.93;26.68;101370.38;4826341;29;20213;-64
2022/05/31 09:04:12;;;;;;;4.93;3.40;;;24.90;36.30;;;28.46;26.69;101367.34;4679175;29;20341;-66
2022/05/31 09:09:26;;;;;;;3.47;2.47;;;24.60;36.40;;;27.74;26.96;101363.19;5114473;27;20547;-66
2022/05/31 09:12:03;;;;;;;3.57;3.27;;;23.90;36.00;;;28.39;26.71;101358.72;5077623;28;20699;-63
2022/05/31 09:14:47;;;;;;;2.70;2.20;;;23.70;37.40;;;28.79;26.29;101367.47;5059567;28;20207;-65
2022/05/31 09:17:26;;;;;;;2.27;2.07;;;23.80;37.60;;;28.65;25.87;101357.53;4947720;28;22301;-67
2022/05/31 09:20:02;;;;;;;2.40;2.20;;;23.90;37.10;;;28.33;25.65;101355.22;4870917;29;20208;-65
2022/05/31 09:22:29;;;;;;;3.23;2.30;;;23.90;35.60;;;28.31;26.21;101362.00;4717952;29;20250;-64
2022/05/31 09:24:58;;;;;;;8.13;7.37;;;23.80;36.50;;;29.31;25.25;101358.72;4591247;30;20322;-65
2022/05/31 09:27:24;;;;;;;11.67;10.47;;;24.00;36.90;;;30.77;23.69;101351.72;4502191;31;20253;-66
2022/05/31 09:33:04;;;;;;;3.17;1.80;;;24.30;37.00;;;32.52;21.81;101359.81;5129834;27;20551;-64
2022/05/31 09:36:07;;;;;;;8.53;7.57;;;25.50;34.40;;;33.41;20.89;101359.94;5072575;28;20232;-64
2022/05/31 09:39:09;;;;;;;3.60;3.00;;;26.10;32.90;;;34.39;19.98;101355.91;5015209;28;20267;-63
2022/05/31 09:41:43;;;;;;;5.43;2.60;;;26.80;32.50;;;34.97;19.51;101355.47;4926578;28;20206;-64
2022/05/31 09:44:19;;;;;;;4.53;4.13;;;27.30;31.00;;;34.55;19.37;101356.28;4777381;29;20237;-63
2022/05/31 09:46:55;;;;;;;2.00;1.73;;;27.70;30.00;;;33.58;19.93;101365.53;4585090;30;20221;-65
2022/05/31 09:52:17;;;;;;;3.07;1.97;;;27.70;29.80;;;33.32;19.99;101357.16;5126371;27;20603;-65
2022/05/31 09:58:07;;;;;;;4.43;4.00;;;27.60;29.60;;;34.06;19.43;101351.97;5058921;28;20201;-69
2022/05/31 10:00:36;;;;;;;2.60;2.40;;;27.70;29.10;;;33.33;19.59;101353.28;5019279;28;20203;-66
2022/05/31 10:03:14;;;;;;;2.40;1.80;;;27.60;28.70;;;32.18;19.94;101353.97;4929529;28;20230;-63
2022/05/31 10:05:45;;;;;;;2.93;2.20;;;27.30;28.20;;;31.24;20.30;101349.94;4826012;29;20332;-65
2022/05/31 10:08:32;;;;;;;4.00;2.70;;;27.00;28.10;;;30.16;20.83;101342.72;4595621;30;20334;-64
2022/05/31 10:11:14;;;;;;;2.47;2.17;;;26.60;27.80;;;29.33;22.47;101343.00;4456500;31;20260;-64
2022/05/31 10:16:24;;;;;;;2.30;1.63;;;26.10;29.10;;;29.54;22.33;101340.09;5154399;27;20393;-63
2022/05/31 10:18:55;;;;;;;4.10;2.20;;;25.40;29.60;;;29.75;22.38;101338.78;5108922;28;20265;-65
2022/05/31 10:21:36;;;;;;;4.57;1.70;;;25.30;30.20;;;30.69;21.97;101333.34;5092533;28;20269;-65
2022/05/31 10:24:17;;;;;;;3.50;1.90;;;25.30;31.00;;;31.96;21.00;101330.13;4982271;28;20219;-64
2022/05/31 10:27:05;;;;;;;2.03;1.50;;;25.60;31.30;;;32.87;19.91;101336.41;4947973;28;20681;-65
2022/05/31 10:29:40;;;;;;;1.53;1.43;;;26.00;30.00;;;33.65;18.68;101327.66;4776900;29;20251;-63
2022/05/31 10:36:19;;;;;;;3.93;2.10;;;27.10;28.40;;;33.68;18.45;101320.75;5150580;27;20647;-62
2022/05/31 10:38:49;;;;;;;2.27;1.60;;;27.50;27.60;;;33.30;18.78;101312.97;5114546;27;20254;-64
2022/05/31 10:41:25;;;;;;;3.53;3.03;;;27.60;27.50;;;32.45;19.19;101309.53;5098632;28;20238;-64
2022/05/31 10:44:25;;;;;;;3.27;2.43;;;27.40;27.50;;;31.43;20.50;101309.91;5015416;28;20203;-63
2022/05/31 10:47:01;;;;;;;2.63;2.43;;;27.00;28.10;;;30.50;21.45;101310.75;4843409;28;21249;-64
2022/05/31 10:49:30;;;;;;;2.87;2.00;;;26.70;28.00;;;29.94;21.75;101309.84;4688763;30;20285;-64
2022/05/31 10:52:12;;;;;;;3.27;1.63;;;26.30;28.40;;;29.94;21.76;101309.84;4579783;30;20248;-64
2022/05/31 10:54:41;;;;;;;2.67;2.10;;;26.00;28.50;;;30.00;21.43;101303.25;4426363;31;20639;-64
2022/05/31 10:59:53;;;;;;;4.10;3.27;;;25.80;29.10;;;30.73;21.39;101307.19;5126062;27;20538;-63
2022/05/31 11:03:00;;;;;;;2.30;1.43;;;25.70;30.20;;;30.62;21.06;101300.25;5078287;28;20781;-65
2022/05/31 11:05:45;;;;;;;2.53;1.73;;;25.80;29.50;;;30.26;20.71;101301.03;5035631;28;20233;-63
2022/05/31 11:11:30;;;;;;;2.00;1.60;;;25.60;27.10;;;29.08;20.70;101301.66;4814148;29;20214;-64
2022/05/31 11:14:34;;;;;;;2.67;1.80;;;25.50;26.50;;;28.45;20.92;101300.72;4733509;29;20255;-63
2022/05/31 11:19:52;;;;;;;2.40;1.13;;;25.20;26.90;;;27.20;22.26;101298.03;5172135;27;20548;-63
2022/05/31 11:22:37;;;;;;;2.50;1.57;;;24.50;27.70;;;26.69;23.68;101297.16;5146846;27;20666;-65
2022/05/31 11:25:38;;;;;;;6.87;6.17;;;24.10;29.10;;;26.39;24.94;101301.63;5136130;27;20235;-63
2022/05/31 11:28:37;;;;;;;3.10;1.90;;;23.80;30.50;;;26.05;25.17;101306.63;5058725;28;20215;-61
2022/05/31 11:31:32;;;;;;;1.60;1.50;;;23.50;30.00;;;25.63;25.46;101303.13;4906132;28;20225;-65
2022/05/31 11:34:21;;;;;;;1.60;1.40;;;23.20;30.20;;;25.38;25.46;101315.34;4631548;30;20242;-67
2022/05/31 11:39:53;;;;;;;2.33;1.60;;;22.90;30.10;;;24.55;25.62;101309.69;5117831;27;20575;-65
2022/05/31 11:42:39;;;;;;;1.40;1.30;;;22.30;30.00;;;24.26;25.49;101308.25;5090610;28;20222;-64
2022/05/31 11:45:19;;;;;;;1.70;1.10;;;22.00;29.70;;;24.08;25.81;101307.50;5044723;28;20235;-64
2022/05/31 11:48:16;;;;;;;2.20;1.37;;;21.80;30.20;;;23.75;26.09;101299.47;5029065;28;20198;-65
2022/05/31 11:50:56;;;;;;;2.27;1.40;;;21.50;30.40;;;23.68;26.56;101298.84;4873771;28;20224;-64
2022/05/31 11:53:53;;;;;;;3.27;1.53;;;21.30;31.40;;;23.65;27.16;101291.28;4826582;29;20371;-63
2022/05/31 11:57:12;;;;;;;2.83;2.30;;;21.20;32.10;;;23.47;27.92;101294.22;4597863;30;20248;-64
2022/05/31 11:59:53;;;;;;;3.53;1.70;;;21.00;33.40;;;23.48;27.96;101299.38;4419805;32;20222;-64
2022/05/31 12:05:05;;;;;;;2.00;1.80;;;20.90;33.70;;;23.45;27.99;101290.97;5166298;27;20639;-60
2022/05/31 12:08:02;;;;;;;3.07;2.53;;;20.80;33.80;;;23.56;28.11;101287.38;5109034;28;20203;-63
2022/05/31 12:10:36;;;;;;;2.10;1.60;;;20.80;34.10;;;23.63;27.51;101288.00;5076989;28;20225;-66
2022/05/31 12:13:10;;;;;;;2.30;1.30;;;20.80;33.70;;;23.72;27.78;101286.56;5044964;28;20205;-63
2022/05/31 12:15:44;;;;;;;2.43;1.40;;;20.80;33.90;;;23.70;26.94;101285.16;4930326;28;20331;-64
2022/05/31 12:18:23;;;;;;;1.67;1.57;;;20.80;33.00;;;23.65;27.00;101290.47;4810786;29;20214;-65
2022/05/31 12:24:09;;;;;;;1.77;1.43;;;20.90;33.30;;;23.41;27.66;101289.84;5134083;27;20616;-66
2022/05/31 12:26:47;;;;;;;1.90;1.40;;;20.80;33.60;;;23.39;28.08;101292.75;5109662;28;20663;-63
2022/05/31 12:29:24;;;;;;;1.50;1.40;;;20.80;34.10;;;23.41;28.29;101289.84;5057696;28;20264;-62
2022/05/31 12:31:51;;;;;;;3.03;1.70;;;20.70;34.20;;;23.42;28.20;101286.09;5040121;28;20641;-64